createdAt,value
2019-02-06T00:00:39.580Z,99893.00
2019-02-06T00:01:52.425Z,99899.11
2019-02-06T00:03:00.555Z,99888.62
2019-02-06T00:04:08.399Z,99892.98
2019-02-06T00:05:16.353Z,99895.59
2019-02-06T00:06:24.878Z,99898.61
2019-02-06T00:07:33.485Z,99903.36
2019-02-06T00:08:42.359Z,99894.16
2019-02-06T00:09:51.059Z,99890.25
2019-02-06T00:10:59.619Z,99896.78
2019-02-06T00:12:08.405Z,99902.00
2019-02-06T00:13:16.444Z,99901.05
2019-02-06T00:14:24.886Z,99906.24
2019-02-06T00:15:32.817Z,99903.60
2019-02-06T00:16:40.755Z,99903.10
2019-02-06T00:17:48.976Z,99897.80
2019-02-06T00:18:57.324Z,99897.31
2019-02-06T00:20:08.469Z,99903.37
2019-02-06T00:21:16.248Z,99897.70
2019-02-06T00:22:24.781Z,99908.52
2019-02-06T00:23:32.475Z,99907.66
2019-02-06T00:24:40.298Z,99902.45
2019-02-06T00:25:48.336Z,99906.30
2019-02-06T00:26:56.183Z,99901.91
2019-02-06T00:28:03.939Z,99904.94
2019-02-06T00:29:11.675Z,99903.19
2019-02-06T00:30:21.360Z,99905.73
2019-02-06T00:31:30.078Z,99903.98
2019-02-06T00:32:38.059Z,99902.64
2019-02-06T00:33:46.362Z,99902.23
2019-02-06T00:34:55.989Z,99906.56
2019-02-06T00:36:04.002Z,99903.92
2019-02-06T00:37:12.176Z,99912.20
2019-02-06T00:38:20.287Z,99911.30
2019-02-06T00:39:28.154Z,99910.45
2019-02-06T00:40:35.749Z,99906.56
2019-02-06T00:41:45.227Z,99910.09
2019-02-06T00:42:59.283Z,99916.14
2019-02-06T00:44:08.327Z,99914.39
2019-02-06T00:45:16.245Z,99916.53
2019-02-06T00:46:24.339Z,99921.30
2019-02-06T00:47:32.419Z,99924.81
2019-02-06T00:48:40.636Z,99920.48
2019-02-06T00:49:48.526Z,99913.95
2019-02-06T00:50:56.192Z,99925.25
2019-02-06T00:52:04.216Z,99922.64
2019-02-06T00:53:12.444Z,99919.20
2019-02-06T00:54:20.120Z,99920.13
2019-02-06T00:55:27.984Z,99919.23
2019-02-06T00:56:35.533Z,99921.91
2019-02-06T00:57:43.187Z,99922.34
2019-02-06T00:58:51.180Z,99918.88
2019-02-06T00:59:59.148Z,99919.77
2019-02-06T01:01:07.035Z,99910.28
2019-02-06T01:02:14.730Z,99918.55
2019-02-06T01:03:23.214Z,99917.22
2019-02-06T01:04:30.915Z,99913.75
2019-02-06T01:05:38.997Z,99909.48
2019-02-06T01:06:46.686Z,99914.73
2019-02-06T01:07:54.356Z,99910.78
2019-02-06T01:09:02.265Z,99912.50
2019-02-06T01:10:14.815Z,99911.58
2019-02-06T01:11:22.596Z,99917.66
2019-02-06T01:12:30.880Z,99922.38
2019-02-06T01:13:38.779Z,99916.74
2019-02-06T01:14:46.681Z,99914.96
2019-02-06T01:15:54.509Z,99917.57
2019-02-06T01:17:02.667Z,99913.66
2019-02-06T01:18:10.554Z,99914.07
2019-02-06T01:19:18.403Z,99917.16
2019-02-06T01:20:26.226Z,99921.45
2019-02-06T01:21:33.879Z,99924.48
2019-02-06T01:22:41.634Z,99926.62
2019-02-06T01:23:49.268Z,99919.61
2019-02-06T01:24:56.845Z,99921.75
2019-02-06T01:26:04.686Z,99923.53
2019-02-06T01:27:12.926Z,99920.92
2019-02-06T01:28:20.777Z,99925.73
2019-02-06T01:29:28.638Z,99919.27
2019-02-06T01:30:38.070Z,99923.14
2019-02-06T01:31:46.043Z,99920.09
2019-02-06T01:32:53.878Z,99920.48
2019-02-06T01:34:01.709Z,99923.50
2019-02-06T01:35:12.906Z,99927.00
2019-02-06T01:36:20.919Z,99923.09
2019-02-06T01:37:28.868Z,99918.75
2019-02-06T01:38:37.004Z,99923.95
2019-02-06T01:39:44.994Z,99918.70
2019-02-06T01:40:53.085Z,99921.30
2019-02-06T01:42:01.246Z,99918.70
2019-02-06T01:43:09.497Z,99917.36
2019-02-06T01:44:17.934Z,99916.87
2019-02-06T01:45:25.988Z,99922.10
2019-02-06T01:46:34.298Z,99915.52
2019-02-06T01:47:42.221Z,99912.83
2019-02-06T01:48:50.278Z,99916.31
2019-02-06T01:49:58.091Z,99917.10
2019-02-06T01:51:05.783Z,99924.08
2019-02-06T01:52:13.497Z,99918.85
2019-02-06T01:53:21.493Z,99921.88
2019-02-06T01:54:29.625Z,99925.35
2019-02-06T01:55:37.496Z,99923.59
2019-02-06T01:56:46.030Z,99926.97
2019-02-06T01:57:53.723Z,99925.19
2019-02-06T01:59:01.434Z,99924.74
2019-02-06T02:00:17.376Z,99922.95
2019-02-06T02:01:26.570Z,99920.31
2019-02-06T02:02:34.600Z,99921.17
2019-02-06T02:03:42.612Z,99917.25
2019-02-06T02:04:50.199Z,99918.01
2019-02-06T02:06:02.323Z,99914.88
2019-02-06T02:07:07.526Z,99919.63
2019-02-06T02:08:15.235Z,99920.07
2019-02-06T02:09:23.407Z,99913.95
2019-02-06T02:10:31.175Z,99911.34
2019-02-06T02:11:39.071Z,99914.36
2019-02-06T02:12:47.425Z,99903.80
2019-02-06T02:13:55.081Z,99907.66
2019-02-06T02:15:03.026Z,99905.41
2019-02-06T02:16:10.512Z,99903.66
2019-02-06T02:17:18.392Z,99904.14
2019-02-06T02:18:26.952Z,99905.48
2019-02-06T02:19:34.843Z,99900.30
2019-02-06T02:20:42.742Z,99899.88
2019-02-06T02:21:50.526Z,99901.19
2019-02-06T02:22:58.187Z,99905.59
2019-02-06T02:24:05.960Z,99906.86
2019-02-06T02:25:14.285Z,99900.40
2019-02-06T02:26:22.715Z,99907.83
2019-02-06T02:27:30.609Z,99909.24
2019-02-06T02:28:38.597Z,99912.78
2019-02-06T02:29:46.521Z,99903.64
2019-02-06T02:30:54.997Z,99912.34
2019-02-06T02:32:02.611Z,99908.86
2019-02-06T02:33:10.524Z,99906.22
2019-02-06T02:34:18.743Z,99910.92
2019-02-06T02:35:26.538Z,99907.38
2019-02-06T02:36:34.431Z,99913.39
2019-02-06T02:37:42.225Z,99908.58
2019-02-06T02:38:49.864Z,99911.57
2019-02-06T02:39:58.335Z,99912.43
2019-02-06T02:41:06.234Z,99907.62
2019-02-06T02:42:14.198Z,99910.27
2019-02-06T02:43:21.988Z,99910.27
2019-02-06T02:44:30.188Z,99918.63
2019-02-06T02:45:38.704Z,99912.54
2019-02-06T02:46:46.707Z,99913.91
2019-02-06T02:47:54.476Z,99917.02
2019-02-06T02:49:02.245Z,99916.16
2019-02-06T02:50:11.692Z,99918.35
2019-02-06T02:51:20.812Z,99913.67
2019-02-06T02:52:29.040Z,99914.64
2019-02-06T02:53:36.708Z,99919.00
2019-02-06T02:54:44.472Z,99913.81
2019-02-06T02:55:52.541Z,99915.16
2019-02-06T02:57:00.969Z,99914.77
2019-02-06T02:58:08.967Z,99918.69
2019-02-06T02:59:17.589Z,99923.95
2019-02-06T03:00:45.446Z,99914.77
2019-02-06T03:01:54.629Z,99919.52
2019-02-06T03:03:20.108Z,99919.48
2019-02-06T03:04:29.538Z,99920.31
2019-02-06T03:05:37.870Z,99915.98
2019-02-06T03:06:46.324Z,99925.16
2019-02-06T03:07:54.474Z,99916.45
2019-02-06T03:09:02.560Z,99916.84
2019-02-06T03:10:12.710Z,99920.79
2019-02-06T03:11:20.900Z,99922.09
2019-02-06T03:12:29.603Z,99921.75
2019-02-06T03:13:37.600Z,99925.28
2019-02-06T03:14:45.836Z,99917.93
2019-02-06T03:15:54.548Z,99921.47
2019-02-06T03:17:03.473Z,99925.41
2019-02-06T03:18:11.826Z,99925.41
2019-02-06T03:19:20.272Z,99925.48
2019-02-06T03:20:28.075Z,99915.06
2019-02-06T03:21:35.982Z,99925.51
2019-02-06T03:22:43.695Z,99922.96
2019-02-06T03:23:51.305Z,99927.36
2019-02-06T03:25:00.409Z,99929.97
2019-02-06T03:26:08.524Z,99929.11
2019-02-06T03:27:16.038Z,99928.25
2019-02-06T03:28:24.407Z,99932.64
2019-02-06T03:29:32.180Z,99926.50
2019-02-06T03:30:40.044Z,99935.63
2019-02-06T03:31:48.199Z,99934.36
2019-02-06T03:32:55.976Z,99929.58
2019-02-06T03:34:04.904Z,99924.84
2019-02-06T03:35:13.175Z,99929.20
2019-02-06T03:36:21.165Z,99924.90
2019-02-06T03:37:29.267Z,99925.82
2019-02-06T03:38:37.172Z,99933.20
2019-02-06T03:39:44.822Z,99933.65
2019-02-06T03:40:52.585Z,99933.20
2019-02-06T03:42:00.330Z,99937.06
2019-02-06T03:43:08.446Z,99936.58
2019-02-06T03:44:16.242Z,99934.39
2019-02-06T03:45:24.016Z,99932.64
2019-02-06T03:46:31.855Z,99938.30
2019-02-06T03:47:39.709Z,99941.77
2019-02-06T03:48:48.062Z,99938.75
2019-02-06T03:49:55.899Z,99934.39
2019-02-06T03:51:03.717Z,99936.14
2019-02-06T03:52:11.492Z,99932.67
2019-02-06T03:53:19.833Z,99933.53
2019-02-06T03:54:27.627Z,99937.80
2019-02-06T03:55:35.392Z,99939.94
2019-02-06T03:56:43.570Z,99943.85
2019-02-06T03:57:51.353Z,99941.23
2019-02-06T03:58:59.454Z,99945.13
2019-02-06T04:00:17.151Z,99942.48
2019-02-06T04:01:24.788Z,99945.48
2019-02-06T04:02:32.900Z,99941.14
2019-02-06T04:03:40.879Z,99950.28
2019-02-06T04:04:49.078Z,99952.42
2019-02-06T04:05:57.242Z,99950.67
2019-02-06T04:07:05.107Z,99953.25
2019-02-06T04:08:12.853Z,99952.80
2019-02-06T04:09:21.335Z,99955.80
2019-02-06T04:10:29.305Z,99952.30
2019-02-06T04:11:37.317Z,99948.86
2019-02-06T04:12:45.753Z,99955.48
2019-02-06T04:13:54.024Z,99958.53
2019-02-06T04:15:02.610Z,99949.02
2019-02-06T04:16:10.980Z,99955.09
2019-02-06T04:17:19.164Z,99951.17
2019-02-06T04:18:27.790Z,99957.70
2019-02-06T04:19:35.836Z,99955.92
2019-02-06T04:20:45.759Z,99956.81
2019-02-06T04:21:54.264Z,99952.48
2019-02-06T04:23:02.684Z,99959.84
2019-02-06T04:24:10.794Z,99952.45
2019-02-06T04:25:19.033Z,99949.39
2019-02-06T04:26:27.009Z,99955.09
2019-02-06T04:27:35.379Z,99955.60
2019-02-06T04:28:43.272Z,99955.60
2019-02-06T04:29:51.355Z,99946.46
2019-02-06T04:30:59.357Z,99957.80
2019-02-06T04:32:07.153Z,99952.98
2019-02-06T04:33:15.286Z,99948.22
2019-02-06T04:34:22.987Z,99952.55
2019-02-06T04:35:31.258Z,99954.27
2019-02-06T04:36:39.320Z,99955.16
2019-02-06T04:37:47.566Z,99963.85
2019-02-06T04:38:55.361Z,99962.48
2019-02-06T04:40:03.306Z,99962.42
2019-02-06T04:42:19.273Z,99967.46
2019-02-06T04:43:27.548Z,99973.52
2019-02-06T04:44:35.381Z,99974.34
2019-02-06T04:45:43.271Z,99970.39
2019-02-06T04:46:51.621Z,99974.66
2019-02-06T04:47:59.688Z,99968.57
2019-02-06T04:49:07.502Z,99969.40
2019-02-06T04:50:17.197Z,99965.92
2019-02-06T04:51:24.920Z,99962.08
2019-02-06T04:52:33.098Z,99972.49
2019-02-06T04:53:40.885Z,99967.68
2019-02-06T04:54:48.764Z,99964.23
2019-02-06T04:55:56.376Z,99973.89
2019-02-06T04:57:04.171Z,99973.92
2019-02-06T04:58:12.172Z,99973.52
2019-02-06T04:59:20.437Z,99973.89
2019-02-06T05:00:29.043Z,99973.00
2019-02-06T05:01:36.943Z,99973.45
2019-02-06T05:02:44.675Z,99975.20
2019-02-06T05:03:52.519Z,99970.04
2019-02-06T05:05:03.927Z,99973.92
2019-02-06T05:06:11.838Z,99973.06
2019-02-06T05:07:19.836Z,99978.32
2019-02-06T05:08:27.940Z,99983.98
2019-02-06T05:09:35.913Z,99982.75
2019-02-06T05:10:43.936Z,99986.28
2019-02-06T05:11:51.266Z,99982.81
2019-02-06T05:12:59.323Z,99985.89
2019-02-06T05:14:07.452Z,99985.52
2019-02-06T05:15:17.140Z,99990.77
2019-02-06T05:16:24.856Z,99985.98
2019-02-06T05:17:33.597Z,99992.98
2019-02-06T05:18:41.682Z,99994.27
2019-02-06T05:19:50.323Z,99988.59
2019-02-06T05:20:59.377Z,99990.31
2019-02-06T05:22:07.334Z,99993.73
2019-02-06T05:23:15.706Z,99991.95
2019-02-06T05:24:23.480Z,99995.42
2019-02-06T05:25:31.857Z,99998.42
2019-02-06T05:26:39.631Z,99995.39
2019-02-06T05:27:47.668Z,99997.08
2019-02-06T05:28:55.680Z,99995.75
2019-02-06T05:30:03.605Z,100000.94
2019-02-06T05:31:11.687Z,100004.03
2019-02-06T05:32:20.377Z,100004.88
2019-02-06T05:33:28.744Z,100007.53
2019-02-06T05:34:36.571Z,100002.34
2019-02-06T05:35:44.644Z,100003.70
2019-02-06T05:36:52.443Z,100010.73
2019-02-06T05:38:00.215Z,100004.68
2019-02-06T05:39:09.338Z,100009.52
2019-02-06T05:40:17.439Z,100015.16
2019-02-06T05:41:25.674Z,100013.44
2019-02-06T05:42:34.102Z,100013.44
2019-02-06T05:43:42.363Z,100007.80
2019-02-06T05:44:50.702Z,100017.32
2019-02-06T05:45:58.964Z,100014.74
2019-02-06T05:47:06.723Z,100017.77
2019-02-06T05:48:14.443Z,100019.52
2019-02-06T05:49:22.740Z,100014.80
2019-02-06T05:50:31.967Z,100013.49
2019-02-06T05:51:41.005Z,100018.72
2019-02-06T05:52:49.369Z,100019.16
2019-02-06T05:53:57.482Z,100026.55
2019-02-06T05:55:07.133Z,100022.58
2019-02-06T05:56:16.007Z,100022.12
2019-02-06T05:57:23.941Z,100019.94
2019-02-06T05:58:32.051Z,100025.60
2019-02-06T05:59:39.958Z,100027.30
2019-02-06T06:00:48.520Z,100029.43
2019-02-06T06:01:56.415Z,100026.79
2019-02-06T06:03:04.949Z,100035.45
2019-02-06T06:04:13.659Z,100035.02
2019-02-06T06:05:22.176Z,100036.27
2019-02-06T06:06:29.853Z,100038.91
2019-02-06T06:07:45.091Z,100036.77
2019-02-06T06:08:47.812Z,100037.59
2019-02-06T06:09:58.293Z,100040.59
2019-02-06T06:11:06.059Z,100043.14
2019-02-06T06:12:14.530Z,100040.06
2019-02-06T06:13:22.474Z,100036.56
2019-02-06T06:14:30.205Z,100041.75
2019-02-06T06:15:38.193Z,100031.27
2019-02-06T06:16:46.516Z,100033.41
2019-02-06T06:17:54.408Z,100032.96
2019-02-06T06:19:02.634Z,100033.41
2019-02-06T06:20:16.750Z,100029.48
2019-02-06T06:21:24.606Z,100030.00
2019-02-06T06:22:33.285Z,100029.20
2019-02-06T06:23:41.436Z,100031.39
2019-02-06T06:24:49.131Z,100033.94
2019-02-06T06:25:57.327Z,100029.61
2019-02-06T06:27:06.192Z,100038.34
2019-02-06T06:28:14.384Z,100038.37
2019-02-06T06:29:22.492Z,100032.28
2019-02-06T06:30:30.649Z,100032.25
2019-02-06T06:31:38.932Z,100037.89
2019-02-06T06:32:47.367Z,100038.78
2019-02-06T06:33:56.049Z,100040.47
2019-02-06T06:35:05.159Z,100040.47
2019-02-06T06:36:12.916Z,100037.83
2019-02-06T06:37:21.007Z,100041.72
2019-02-06T06:38:29.089Z,100039.08
2019-02-06T06:39:37.419Z,100043.41
2019-02-06T06:40:45.857Z,100038.66
2019-02-06T06:41:53.953Z,100040.00
2019-02-06T06:43:02.359Z,100041.34
2019-02-06T06:44:10.919Z,100046.53
2019-02-06T06:45:23.423Z,100043.03
2019-02-06T06:46:32.195Z,100042.58
2019-02-06T06:47:40.002Z,100048.67
2019-02-06T06:48:48.164Z,100053.45
2019-02-06T06:49:56.364Z,100054.31
2019-02-06T06:51:04.492Z,100051.19
2019-02-06T06:52:12.572Z,100045.94
2019-02-06T06:53:20.974Z,100049.44
2019-02-06T06:54:30.252Z,100047.69
2019-02-06T06:55:38.353Z,100050.30
2019-02-06T06:56:48.650Z,100052.02
2019-02-06T06:57:57.784Z,100059.38
2019-02-06T06:59:06.883Z,100064.97
2019-02-06T07:00:27.994Z,100057.95
2019-02-06T07:01:36.301Z,100057.92
2019-02-06T07:02:44.508Z,100060.50
2019-02-06T07:03:52.812Z,100053.52
2019-02-06T07:05:01.623Z,100055.25
2019-02-06T07:06:10.161Z,100061.81
2019-02-06T07:07:18.576Z,100061.81
2019-02-06T07:08:26.872Z,100064.39
2019-02-06T07:09:35.090Z,100062.99
2019-02-06T07:10:43.174Z,100058.08
2019-02-06T07:11:52.347Z,100065.41
2019-02-06T07:13:00.288Z,100066.20
2019-02-06T07:14:08.534Z,100062.62
2019-02-06T07:15:25.465Z,100059.02
2019-02-06T07:16:33.855Z,100064.14
2019-02-06T07:17:41.812Z,100063.63
2019-02-06T07:18:49.781Z,100060.98
2019-02-06T07:19:58.021Z,100060.05
2019-02-06T07:21:06.294Z,100058.25
2019-02-06T07:22:14.532Z,100063.38
2019-02-06T07:23:22.937Z,100059.80
2019-02-06T07:24:30.922Z,100068.43
2019-02-06T07:25:38.742Z,100066.61
2019-02-06T07:26:46.706Z,100063.05
2019-02-06T07:27:54.703Z,100059.91
2019-02-06T07:29:02.723Z,100061.55
2019-02-06T07:30:23.826Z,100063.23
2019-02-06T07:31:31.996Z,100064.95
2019-02-06T07:32:40.043Z,100066.19
2019-02-06T07:33:48.001Z,100065.28
2019-02-06T07:34:56.177Z,100063.49
2019-02-06T07:36:04.385Z,100064.72
2019-02-06T07:37:12.436Z,100069.92
2019-02-06T07:38:24.296Z,100061.66
2019-02-06T07:39:30.715Z,100059.48
2019-02-06T07:40:39.024Z,100057.32
2019-02-06T07:41:47.253Z,100061.25
2019-02-06T07:42:56.067Z,100063.05
2019-02-06T07:44:04.840Z,100058.74
2019-02-06T07:45:18.734Z,100063.49
2019-02-06T07:46:26.724Z,100066.48
2019-02-06T07:47:35.808Z,100065.50
2019-02-06T07:48:43.999Z,100063.17
2019-02-06T07:49:51.786Z,100063.50
2019-02-06T07:51:00.523Z,100062.93
2019-02-06T07:52:08.587Z,100058.88
2019-02-06T07:53:17.340Z,100062.27
2019-02-06T07:54:25.341Z,100062.23
2019-02-06T07:55:34.315Z,100061.83
2019-02-06T07:56:42.765Z,100063.55
2019-02-06T07:57:50.705Z,100064.44
2019-02-06T07:58:59.018Z,100066.24
2019-02-06T08:00:09.923Z,100065.34
2019-02-06T08:01:18.110Z,100070.17
2019-02-06T08:02:26.880Z,100070.21
2019-02-06T08:03:35.126Z,100068.04
2019-02-06T08:04:43.796Z,100067.55
2019-02-06T08:05:52.511Z,100070.09
2019-02-06T08:07:01.086Z,100071.23
2019-02-06T08:08:09.990Z,100065.41
2019-02-06T08:09:18.092Z,100066.09
2019-02-06T08:10:35.604Z,100063.39
2019-02-06T08:11:44.051Z,100065.05
2019-02-06T08:12:52.012Z,100064.97
2019-02-06T08:13:59.963Z,100064.93
2019-02-06T08:15:13.461Z,100055.89
2019-02-06T08:16:21.549Z,100061.63
2019-02-06T08:17:30.576Z,100059.82
2019-02-06T08:18:38.910Z,100060.27
2019-02-06T08:19:47.276Z,100067.77
2019-02-06T08:20:55.502Z,100061.76
2019-02-06T08:22:03.826Z,100066.14
2019-02-06T08:23:12.133Z,100062.16
2019-02-06T08:24:20.380Z,100065.11
2019-02-06T08:25:28.484Z,100061.94
2019-02-06T08:26:36.886Z,100063.08
2019-02-06T08:27:45.292Z,100068.99
2019-02-06T08:28:53.226Z,100068.81
2019-02-06T08:30:01.293Z,100073.82
2019-02-06T08:31:09.709Z,100073.22
2019-02-06T08:32:18.004Z,100070.81
2019-02-06T08:33:26.509Z,100064.02
2019-02-06T08:34:34.729Z,100068.66
2019-02-06T08:35:43.170Z,100062.05
2019-02-06T08:36:51.468Z,100066.34
2019-02-06T08:37:59.638Z,100069.66
2019-02-06T08:39:09.294Z,100065.99
2019-02-06T08:40:21.244Z,100060.59
2019-02-06T08:41:29.678Z,100054.67
2019-02-06T08:42:37.835Z,100051.89
2019-02-06T08:43:46.027Z,100050.77
2019-02-06T08:44:53.704Z,100051.80
2019-02-06T08:46:01.434Z,100055.34
2019-02-06T08:47:09.247Z,100051.37
2019-02-06T08:48:17.605Z,100055.43
2019-02-06T08:49:25.619Z,100052.09
2019-02-06T08:50:34.746Z,100052.72
2019-02-06T08:51:43.286Z,100059.91
2019-02-06T08:52:52.134Z,100056.83
2019-02-06T08:54:00.676Z,100052.70
2019-02-06T08:55:12.842Z,100054.69
2019-02-06T08:56:20.739Z,100052.73
2019-02-06T08:57:28.749Z,100050.31
2019-02-06T08:58:37.395Z,100051.00
2019-02-06T08:59:45.591Z,100050.67
2019-02-06T09:00:53.795Z,100046.33
2019-02-06T09:02:02.446Z,100049.82
2019-02-06T09:03:11.321Z,100047.59
2019-02-06T09:04:19.107Z,100045.92
2019-02-06T09:05:27.108Z,100041.23
2019-02-06T09:06:35.128Z,100036.55
2019-02-06T09:07:43.734Z,100038.94
2019-02-06T09:08:59.380Z,100047.11
2019-02-06T09:10:02.046Z,100046.03
2019-02-06T09:11:10.100Z,100044.20
2019-02-06T09:12:17.915Z,100046.41
2019-02-06T09:13:26.442Z,100049.34
2019-02-06T09:14:34.493Z,100047.41
2019-02-06T09:15:42.871Z,100051.86
2019-02-06T09:16:51.331Z,100049.23
2019-02-06T09:17:59.513Z,100053.28
2019-02-06T09:19:07.396Z,100057.95
2019-02-06T09:20:21.842Z,100056.39
2019-02-06T09:21:29.643Z,100052.99
2019-02-06T09:22:38.266Z,100058.25
2019-02-06T09:23:46.403Z,100056.22
2019-02-06T09:24:54.429Z,100054.65
2019-02-06T09:26:02.817Z,100056.36
2019-02-06T09:27:10.766Z,100057.94
2019-02-06T09:28:19.000Z,100048.58
2019-02-06T09:29:27.826Z,100053.06
2019-02-06T09:30:36.867Z,100051.53
2019-02-06T09:31:45.706Z,100051.62
2019-02-06T09:32:54.367Z,100050.91
2019-02-06T09:34:02.717Z,100056.22
2019-02-06T09:35:12.227Z,100055.38
2019-02-06T09:36:20.453Z,100053.00
2019-02-06T09:37:28.821Z,100050.25
2019-02-06T09:38:37.343Z,100056.59
2019-02-06T09:39:45.427Z,100056.59
2019-02-06T09:40:53.966Z,100054.84
2019-02-06T09:42:02.368Z,100047.81
2019-02-06T09:43:10.175Z,100046.92
2019-02-06T09:44:17.904Z,100051.62
2019-02-06T09:45:26.094Z,100047.61
2019-02-06T09:46:33.988Z,100051.16
2019-02-06T09:47:42.409Z,100053.01
2019-02-06T09:48:51.104Z,100050.29
2019-02-06T09:49:59.332Z,100047.45
2019-02-06T09:51:07.163Z,100048.44
2019-02-06T09:52:15.485Z,100047.83
2019-02-06T09:53:23.712Z,100039.73
2019-02-06T09:54:32.151Z,100041.03
2019-02-06T09:55:40.327Z,100043.69
2019-02-06T09:56:50.627Z,100050.73
2019-02-06T09:57:58.145Z,100049.33
2019-02-06T09:59:06.545Z,100047.42
2019-02-06T10:00:21.300Z,100043.14
2019-02-06T10:01:29.587Z,100047.36
2019-02-06T10:02:37.738Z,100046.80
2019-02-06T10:03:47.007Z,100046.72
2019-02-06T10:04:55.628Z,100041.64
2019-02-06T10:06:03.714Z,100046.91
2019-02-06T10:07:11.778Z,100044.75
2019-02-06T10:08:20.232Z,100047.17
2019-02-06T10:09:28.628Z,100048.76
2019-02-06T10:10:36.727Z,100041.14
2019-02-06T10:11:44.946Z,100039.95
2019-02-06T10:12:53.233Z,100043.05
2019-02-06T10:14:01.579Z,100035.02
2019-02-06T10:15:17.411Z,100036.39
2019-02-06T10:16:25.320Z,100038.80
2019-02-06T10:17:36.147Z,100039.81
2019-02-06T10:18:43.294Z,100037.19
2019-02-06T10:19:51.317Z,100035.80
2019-02-06T10:20:59.089Z,100032.05
2019-02-06T10:22:07.000Z,100037.91
2019-02-06T10:23:15.226Z,100031.58
2019-02-06T10:24:23.571Z,100036.30
2019-02-06T10:25:32.025Z,100032.80
2019-02-06T10:26:40.524Z,100033.43
2019-02-06T10:27:48.635Z,100027.60
2019-02-06T10:28:56.500Z,100035.12
2019-02-06T10:30:06.884Z,100030.93
2019-02-06T10:31:15.026Z,100028.23
2019-02-06T10:32:22.856Z,100025.59
2019-02-06T10:33:30.758Z,100018.87
2019-02-06T10:34:38.959Z,100022.49
2019-02-06T10:35:47.438Z,100020.64
2019-02-06T10:36:56.378Z,100019.40
2019-02-06T10:38:04.818Z,100023.98
2019-02-06T10:39:12.872Z,100020.38
2019-02-06T10:40:21.163Z,100023.70
2019-02-06T10:41:29.273Z,100019.50
2019-02-06T10:42:37.487Z,100019.86
2019-02-06T10:43:45.585Z,100021.39
2019-02-06T10:44:53.299Z,100018.36
2019-02-06T10:46:02.037Z,100020.63
2019-02-06T10:47:10.776Z,100019.48
2019-02-06T10:48:18.628Z,100017.25
2019-02-06T10:49:27.212Z,100007.48
2019-02-06T10:50:45.718Z,100015.84
2019-02-06T10:51:53.502Z,100016.17
2019-02-06T10:53:01.361Z,100011.94
2019-02-06T10:54:09.476Z,100010.13
2019-02-06T10:55:17.185Z,100005.65
2019-02-06T10:56:25.039Z,100002.22
2019-02-06T10:57:33.101Z,99998.49
2019-02-06T10:58:41.045Z,99995.56
2019-02-06T10:59:49.039Z,99997.16
2019-02-06T11:00:58.021Z,99993.95
2019-02-06T11:02:05.967Z,100000.70
2019-02-06T11:03:13.603Z,100000.42
2019-02-06T11:04:21.133Z,99995.48
2019-02-06T11:05:29.032Z,99996.06
2019-02-06T11:06:36.968Z,99989.95
2019-02-06T11:07:46.227Z,99991.94
2019-02-06T11:08:54.449Z,99984.50
2019-02-06T11:10:02.311Z,99987.50
2019-02-06T11:11:10.220Z,99992.77
2019-02-06T11:12:18.100Z,99989.73
2019-02-06T11:13:25.811Z,99985.25
2019-02-06T11:14:34.091Z,99987.50
2019-02-06T11:15:41.859Z,99985.78
2019-02-06T11:16:49.863Z,99995.63
2019-02-06T11:17:58.493Z,99991.83
2019-02-06T11:19:06.567Z,99993.15
2019-02-06T11:20:23.987Z,99994.46
2019-02-06T11:21:31.760Z,99989.03
2019-02-06T11:22:39.549Z,99988.81
2019-02-06T11:23:47.752Z,99982.86
2019-02-06T11:24:55.854Z,99982.59
2019-02-06T11:26:03.964Z,99979.13
2019-02-06T11:27:12.165Z,99977.58
2019-02-06T11:28:20.190Z,99976.53
2019-02-06T11:29:28.201Z,99976.66
2019-02-06T11:30:40.225Z,99975.34
2019-02-06T11:31:48.045Z,99968.75
2019-02-06T11:32:55.973Z,99962.63
2019-02-06T11:34:04.036Z,99957.42
2019-02-06T11:35:12.563Z,99963.34
2019-02-06T11:36:24.164Z,99970.31
2019-02-06T11:37:29.926Z,99972.23
2019-02-06T11:38:38.137Z,99960.70
2019-02-06T11:39:57.290Z,99962.16
2019-02-06T11:40:55.759Z,99965.76
2019-02-06T11:42:04.020Z,99966.01
2019-02-06T11:43:12.290Z,99957.23
2019-02-06T11:44:20.199Z,99957.91
2019-02-06T11:45:35.000Z,99952.16
2019-02-06T11:46:42.851Z,99955.06
2019-02-06T11:47:51.234Z,99951.25
2019-02-06T11:48:59.277Z,99948.85
2019-02-06T11:50:11.857Z,99951.92
2019-02-06T11:51:19.824Z,99955.42
2019-02-06T11:52:28.051Z,99944.70
2019-02-06T11:53:36.726Z,99946.78
2019-02-06T11:54:44.605Z,99945.45
2019-02-06T11:55:52.745Z,99947.83
2019-02-06T11:57:00.982Z,99939.87
2019-02-06T11:58:08.817Z,99939.41
2019-02-06T11:59:17.039Z,99941.81
2019-02-06T12:00:29.590Z,99938.79
2019-02-06T12:01:37.287Z,99934.45
2019-02-06T12:02:45.416Z,99936.24
2019-02-06T12:03:53.956Z,99935.69
2019-02-06T12:05:02.050Z,99935.47
2019-02-06T12:06:10.615Z,99929.84
2019-02-06T12:07:18.786Z,99923.61
2019-02-06T12:08:26.941Z,99920.11
2019-02-06T12:09:34.828Z,99920.36
2019-02-06T12:10:42.908Z,99917.54
2019-02-06T12:11:50.528Z,99914.94
2019-02-06T12:12:58.447Z,99920.83
2019-02-06T12:14:07.248Z,99914.34
2019-02-06T12:15:20.282Z,99909.25
2019-02-06T12:16:28.363Z,99908.03
2019-02-06T12:17:36.772Z,99906.56
2019-02-06T12:18:44.810Z,99887.49
2019-02-06T12:19:52.965Z,99895.16
2019-02-06T12:21:01.879Z,99884.48
2019-02-06T12:22:10.066Z,99892.34
2019-02-06T12:23:18.148Z,99877.25
2019-02-06T12:24:26.820Z,99876.33
2019-02-06T12:25:35.899Z,99873.20
2019-02-06T12:26:44.004Z,99871.28
2019-02-06T12:27:56.737Z,99867.82
2019-02-06T12:29:04.916Z,99869.17
2019-02-06T12:30:20.802Z,99865.63
2019-02-06T12:31:28.540Z,99863.95
2019-02-06T12:32:36.881Z,99851.52
2019-02-06T12:33:45.351Z,99852.81
2019-02-06T12:34:53.402Z,99851.45
2019-02-06T12:36:01.389Z,99854.51
2019-02-06T12:37:10.056Z,99850.48
2019-02-06T12:38:20.802Z,99858.53
2019-02-06T12:39:29.907Z,99848.24
2019-02-06T12:40:38.591Z,99846.33
2019-02-06T12:41:47.024Z,99842.86
2019-02-06T12:42:55.037Z,99841.95
2019-02-06T12:44:02.913Z,99839.31
2019-02-06T12:45:15.153Z,99832.69
2019-02-06T12:46:23.412Z,99831.28
2019-02-06T12:47:31.512Z,99831.70
2019-02-06T12:48:39.509Z,99830.52
2019-02-06T12:49:47.977Z,99826.44
2019-02-06T12:50:57.052Z,99827.48
2019-02-06T12:52:05.074Z,99826.41
2019-02-06T12:53:13.268Z,99826.70
2019-02-06T12:54:21.165Z,99820.57
2019-02-06T12:55:32.537Z,99822.37
2019-02-06T12:56:40.817Z,99810.24
2019-02-06T12:57:48.584Z,99809.20
2019-02-06T12:58:56.560Z,99807.45
2019-02-06T13:00:07.423Z,99802.89
2019-02-06T13:01:15.102Z,99807.03
2019-02-06T13:02:23.171Z,99806.82
2019-02-06T13:03:30.972Z,99801.13
2019-02-06T13:04:38.853Z,99798.81
2019-02-06T13:05:46.779Z,99803.66
2019-02-06T13:06:54.632Z,99799.45
2019-02-06T13:08:03.690Z,99804.94
2019-02-06T13:09:13.013Z,99802.98
2019-02-06T13:10:33.250Z,99796.20
2019-02-06T13:11:33.101Z,99797.70
2019-02-06T13:12:41.324Z,99800.91
2019-02-06T13:13:49.755Z,99797.58
2019-02-06T13:14:57.953Z,99795.27
2019-02-06T13:16:06.093Z,99790.30